Lonsdale, Minnesota
Current Conditions -  °F | °C
As of 11:13 AM on Thursday 18 Dec 2014 (Local Time) from KFBL Reporting Station
Light Snow Light Snow  
Wind Chill: 19°   Ceiling: 1700
Heat Index: 19°   Visibility: 5mi
Dew Point: 14°   Wind: 3mph
Humidity: 80%   Direction: 110°ESE
Pressure: 30.29"   Gusts: NA
Location:  44.48°N, 93.43°W
Report Text: KFBL 181713Z AUTO 11003KT 5SM -SN BKN017 M07/M10 A3029 RMK AO2
Loading
Personal Weather Stations






























Interactive Weather Map New forecast layout! Learn more

10-Day Weather Forecast

Advertisements
Track Severe Weather on mobile